sensor_id;sensor_type;location;lat;lon;timestamp;P1;durP1;ratioP1;P2;durP2;ratioP2
47429;SDS011;33181;49.246;7.372;2023-03-14T00:00:54;4.47;;;2.80;;
47429;SDS011;33181;49.246;7.372;2023-03-14T00:03:21;4.83;;;2.80;;
47429;SDS011;33181;49.246;7.372;2023-03-14T00:05:47;5.60;;;2.70;;
47429;SDS011;33181;49.246;7.372;2023-03-14T00:08:13;5.77;;;2.80;;
47429;SDS011;33181;49.246;7.372;2023-03-14T00:10:39;5.17;;;2.30;;
47429;SDS011;33181;49.246;7.372;2023-03-14T00:13:05;3.47;;;2.50;;
47429;SDS011;33181;49.246;7.372;2023-03-14T00:15:34;6.47;;;2.53;;
47429;SDS011;33181;49.246;7.372;2023-03-14T00:18:00;3.70;;;2.67;;
47429;SDS011;33181;49.246;7.372;2023-03-14T00:20:26;6.90;;;2.47;;
47429;SDS011;33181;49.246;7.372;2023-03-14T00:22:52;6.57;;;2.67;;
47429;SDS011;33181;49.246;7.372;2023-03-14T00:25:18;4.13;;;2.30;;
47429;SDS011;33181;49.246;7.372;2023-03-14T00:27:45;5.80;;;2.63;;
47429;SDS011;33181;49.246;7.372;2023-03-14T00:30:10;7.87;;;2.70;;
47429;SDS011;33181;49.246;7.372;2023-03-14T00:32:36;6.57;;;2.73;;
47429;SDS011;33181;49.246;7.372;2023-03-14T00:35:02;3.70;;;2.57;;
47429;SDS011;33181;49.246;7.372;2023-03-14T00:37:29;3.50;;;2.30;;
47429;SDS011;33181;49.246;7.372;2023-03-14T00:39:55;6.33;;;2.50;;
47429;SDS011;33181;49.246;7.372;2023-03-14T00:42:20;3.47;;;2.30;;
47429;SDS011;33181;49.246;7.372;2023-03-14T00:44:46;5.60;;;2.50;;
47429;SDS011;33181;49.246;7.372;2023-03-14T00:47:12;4.40;;;2.30;;
47429;SDS011;33181;49.246;7.372;2023-03-14T00:49:38;6.23;;;2.33;;
47429;SDS011;33181;49.246;7.372;2023-03-14T00:52:03;8.33;;;2.80;;
47429;SDS011;33181;49.246;7.372;2023-03-14T00:54:29;4.23;;;2.27;;
47429;SDS011;33181;49.246;7.372;2023-03-14T00:56:55;6.97;;;2.40;;
47429;SDS011;33181;49.246;7.372;2023-03-14T00:59:21;7.30;;;2.57;;
47429;SDS011;33181;49.246;7.372;2023-03-14T01:01:47;6.83;;;2.83;;
47429;SDS011;33181;49.246;7.372;2023-03-14T01:04:12;4.57;;;2.37;;
47429;SDS011;33181;49.246;7.372;2023-03-14T01:06:38;6.10;;;2.57;;
47429;SDS011;33181;49.246;7.372;2023-03-14T01:09:04;6.33;;;2.20;;
47429;SDS011;33181;49.246;7.372;2023-03-14T01:11:32;6.80;;;2.50;;
47429;SDS011;33181;49.246;7.372;2023-03-14T01:13:59;5.13;;;2.60;;
47429;SDS011;33181;49.246;7.372;2023-03-14T01:16:26;3.80;;;2.27;;
47429;SDS011;33181;49.246;7.372;2023-03-14T01:18:54;7.37;;;2.70;;
47429;SDS011;33181;49.246;7.372;2023-03-14T01:21:31;7.93;;;3.70;;
47429;SDS011;33181;49.246;7.372;2023-03-14T01:23:59;7.63;;;2.63;;
47429;SDS011;33181;49.246;7.372;2023-03-14T01:26:28;8.50;;;2.47;;
47429;SDS011;33181;49.246;7.372;2023-03-14T01:28:57;6.47;;;2.40;;
47429;SDS011;33181;49.246;7.372;2023-03-14T01:31:24;7.40;;;2.90;;
47429;SDS011;33181;49.246;7.372;2023-03-14T01:33:51;8.57;;;3.13;;
47429;SDS011;33181;49.246;7.372;2023-03-14T01:36:17;7.07;;;2.60;;
47429;SDS011;33181;49.246;7.372;2023-03-14T01:38:43;8.93;;;2.70;;
47429;SDS011;33181;49.246;7.372;2023-03-14T01:41:12;8.17;;;2.50;;
47429;SDS011;33181;49.246;7.372;2023-03-14T01:43:42;5.00;;;2.30;;
47429;SDS011;33181;49.246;7.372;2023-03-14T01:48:50;7.23;;;2.50;;
47429;SDS011;33181;49.246;7.372;2023-03-14T01:51:48;6.83;;;3.03;;
47429;SDS011;33181;49.246;7.372;2023-03-14T01:54:19;5.97;;;2.40;;
47429;SDS011;33181;49.246;7.372;2023-03-14T01:57:11;4.70;;;2.40;;
47429;SDS011;33181;49.246;7.372;2023-03-14T02:02:41;4.27;;;2.23;;
47429;SDS011;33181;49.246;7.372;2023-03-14T02:05:32;5.30;;;2.43;;
47429;SDS011;33181;49.246;7.372;2023-03-14T02:08:04;4.17;;;2.30;;
47429;SDS011;33181;49.246;7.372;2023-03-14T02:10:39;4.13;;;2.60;;
47429;SDS011;33181;49.246;7.372;2023-03-14T02:13:09;4.00;;;2.47;;
47429;SDS011;33181;49.246;7.372;2023-03-14T02:15:36;3.60;;;2.20;;
47429;SDS011;33181;49.246;7.372;2023-03-14T02:18:03;4.40;;;2.43;;
47429;SDS011;33181;49.246;7.372;2023-03-14T02:20:51;6.60;;;2.33;;
47429;SDS011;33181;49.246;7.372;2023-03-14T02:26:22;4.60;;;2.50;;
47429;SDS011;33181;49.246;7.372;2023-03-14T02:29:00;5.17;;;2.60;;
47429;SDS011;33181;49.246;7.372;2023-03-14T02:31:26;6.50;;;2.27;;
47429;SDS011;33181;49.246;7.372;2023-03-14T02:33:52;5.90;;;2.43;;
47429;SDS011;33181;49.246;7.372;2023-03-14T02:36:18;5.33;;;2.33;;
47429;SDS011;33181;49.246;7.372;2023-03-14T02:41:25;8.73;;;2.50;;
47429;SDS011;33181;49.246;7.372;2023-03-14T02:43:51;6.80;;;2.20;;
47429;SDS011;33181;49.246;7.372;2023-03-14T02:46:18;5.10;;;2.30;;
47429;SDS011;33181;49.246;7.372;2023-03-14T02:51:41;5.33;;;2.33;;
47429;SDS011;33181;49.246;7.372;2023-03-14T02:54:09;6.80;;;2.57;;
47429;SDS011;33181;49.246;7.372;2023-03-14T02:56:36;6.80;;;2.43;;
47429;SDS011;33181;49.246;7.372;2023-03-14T02:59:02;9.73;;;2.87;;
47429;SDS011;33181;49.246;7.372;2023-03-14T03:01:29;6.60;;;2.53;;
47429;SDS011;33181;49.246;7.372;2023-03-14T03:03:55;5.83;;;2.03;;
47429;SDS011;33181;49.246;7.372;2023-03-14T03:06:21;9.20;;;2.37;;
47429;SDS011;33181;49.246;7.372;2023-03-14T03:08:47;6.60;;;2.50;;
47429;SDS011;33181;49.246;7.372;2023-03-14T03:11:13;4.40;;;2.50;;
47429;SDS011;33181;49.246;7.372;2023-03-14T03:13:39;9.10;;;2.27;;
47429;SDS011;33181;49.246;7.372;2023-03-14T03:16:04;5.20;;;2.23;;
47429;SDS011;33181;49.246;7.372;2023-03-14T03:18:31;5.47;;;2.20;;
47429;SDS011;33181;49.246;7.372;2023-03-14T03:20:59;6.20;;;2.00;;
47429;SDS011;33181;49.246;7.372;2023-03-14T03:23:27;5.50;;;2.20;;
47429;SDS011;33181;49.246;7.372;2023-03-14T03:25:52;5.70;;;2.50;;
47429;SDS011;33181;49.246;7.372;2023-03-14T03:28:18;7.17;;;2.30;;
47429;SDS011;33181;49.246;7.372;2023-03-14T03:30:44;7.00;;;2.60;;
47429;SDS011;33181;49.246;7.372;2023-03-14T03:33:11;5.30;;;2.27;;
47429;SDS011;33181;49.246;7.372;2023-03-14T03:35:45;4.03;;;1.97;;
47429;SDS011;33181;49.246;7.372;2023-03-14T03:38:13;6.77;;;2.40;;
47429;SDS011;33181;49.246;7.372;2023-03-14T03:40:39;4.53;;;2.80;;
47429;SDS011;33181;49.246;7.372;2023-03-14T03:43:05;5.50;;;2.27;;
47429;SDS011;33181;49.246;7.372;2023-03-14T03:45:31;6.13;;;2.43;;
47429;SDS011;33181;49.246;7.372;2023-03-14T03:47:57;8.87;;;2.50;;
47429;SDS011;33181;49.246;7.372;2023-03-14T03:50:22;10.00;;;2.90;;
47429;SDS011;33181;49.246;7.372;2023-03-14T03:52:48;6.63;;;2.30;;
47429;SDS011;33181;49.246;7.372;2023-03-14T03:55:14;6.53;;;2.30;;
47429;SDS011;33181;49.246;7.372;2023-03-14T03:57:40;4.17;;;2.13;;
47429;SDS011;33181;49.246;7.372;2023-03-14T04:00:05;6.83;;;2.40;;
47429;SDS011;33181;49.246;7.372;2023-03-14T04:02:34;11.47;;;2.60;;
47429;SDS011;33181;49.246;7.372;2023-03-14T04:04:59;7.03;;;2.50;;
47429;SDS011;33181;49.246;7.372;2023-03-14T04:07:25;4.73;;;2.13;;
47429;SDS011;33181;49.246;7.372;2023-03-14T04:09:52;5.40;;;2.10;;
47429;SDS011;33181;49.246;7.372;2023-03-14T04:12:18;5.07;;;2.00;;
47429;SDS011;33181;49.246;7.372;2023-03-14T04:14:44;4.97;;;2.10;;
47429;SDS011;33181;49.246;7.372;2023-03-14T04:17:10;5.53;;;2.43;;
47429;SDS011;33181;49.246;7.372;2023-03-14T04:19:37;6.57;;;2.23;;
47429;SDS011;33181;49.246;7.372;2023-03-14T04:22:03;8.37;;;2.80;;
47429;SDS011;33181;49.246;7.372;2023-03-14T04:24:29;7.07;;;2.13;;
47429;SDS011;33181;49.246;7.372;2023-03-14T04:26:55;8.00;;;2.30;;
47429;SDS011;33181;49.246;7.372;2023-03-14T04:29:20;6.13;;;2.10;;
47429;SDS011;33181;49.246;7.372;2023-03-14T04:31:46;4.70;;;1.90;;
47429;SDS011;33181;49.246;7.372;2023-03-14T04:34:12;4.80;;;2.23;;
47429;SDS011;33181;49.246;7.372;2023-03-14T04:36:38;3.53;;;1.83;;
47429;SDS011;33181;49.246;7.372;2023-03-14T04:39:05;4.33;;;1.90;;
47429;SDS011;33181;49.246;7.372;2023-03-14T04:41:30;4.27;;;1.83;;
47429;SDS011;33181;49.246;7.372;2023-03-14T04:43:57;5.10;;;2.23;;
47429;SDS011;33181;49.246;7.372;2023-03-14T04:46:23;5.77;;;2.40;;
47429;SDS011;33181;49.246;7.372;2023-03-14T04:48:48;6.00;;;2.13;;
47429;SDS011;33181;49.246;7.372;2023-03-14T04:51:14;4.13;;;1.90;;
47429;SDS011;33181;49.246;7.372;2023-03-14T04:53:40;5.73;;;1.77;;
47429;SDS011;33181;49.246;7.372;2023-03-14T04:56:06;3.47;;;1.87;;
47429;SDS011;33181;49.246;7.372;2023-03-14T04:58:33;9.10;;;2.33;;
47429;SDS011;33181;49.246;7.372;2023-03-14T05:01:02;5.87;;;2.03;;
47429;SDS011;33181;49.246;7.372;2023-03-14T05:03:29;5.83;;;2.40;;
47429;SDS011;33181;49.246;7.372;2023-03-14T05:05:55;4.17;;;2.00;;
47429;SDS011;33181;49.246;7.372;2023-03-14T05:08:22;6.53;;;1.90;;
47429;SDS011;33181;49.246;7.372;2023-03-14T05:10:52;7.73;;;1.90;;
47429;SDS011;33181;49.246;7.372;2023-03-14T05:13:18;3.73;;;1.80;;
47429;SDS011;33181;49.246;7.372;2023-03-14T05:15:44;4.37;;;2.10;;
47429;SDS011;33181;49.246;7.372;2023-03-14T05:18:10;7.40;;;1.87;;
47429;SDS011;33181;49.246;7.372;2023-03-14T05:20:35;3.20;;;1.80;;
47429;SDS011;33181;49.246;7.372;2023-03-14T05:23:01;5.93;;;2.13;;
47429;SDS011;33181;49.246;7.372;2023-03-14T05:25:27;5.43;;;2.20;;
47429;SDS011;33181;49.246;7.372;2023-03-14T05:27:53;7.67;;;2.20;;
47429;SDS011;33181;49.246;7.372;2023-03-14T05:30:20;3.80;;;2.00;;
47429;SDS011;33181;49.246;7.372;2023-03-14T05:32:46;5.97;;;2.00;;
47429;SDS011;33181;49.246;7.372;2023-03-14T05:35:13;7.27;;;1.93;;
47429;SDS011;33181;49.246;7.372;2023-03-14T05:37:39;6.63;;;2.00;;
47429;SDS011;33181;49.246;7.372;2023-03-14T05:40:05;5.87;;;2.50;;
47429;SDS011;33181;49.246;7.372;2023-03-14T05:42:32;8.93;;;2.90;;
47429;SDS011;33181;49.246;7.372;2023-03-14T05:44:58;5.90;;;2.20;;
47429;SDS011;33181;49.246;7.372;2023-03-14T05:47:24;6.80;;;2.30;;
47429;SDS011;33181;49.246;7.372;2023-03-14T05:49:50;6.40;;;2.27;;
47429;SDS011;33181;49.246;7.372;2023-03-14T05:52:16;8.10;;;2.63;;
47429;SDS011;33181;49.246;7.372;2023-03-14T05:54:42;5.20;;;2.30;;
47429;SDS011;33181;49.246;7.372;2023-03-14T05:57:07;8.00;;;3.03;;
47429;SDS011;33181;49.246;7.372;2023-03-14T05:59:33;7.40;;;2.20;;
47429;SDS011;33181;49.246;7.372;2023-03-14T06:01:59;7.23;;;2.20;;
47429;SDS011;33181;49.246;7.372;2023-03-14T06:04:25;5.73;;;2.17;;
47429;SDS011;33181;49.246;7.372;2023-03-14T06:06:51;8.27;;;2.40;;
47429;SDS011;33181;49.246;7.372;2023-03-14T06:09:16;4.60;;;2.40;;
47429;SDS011;33181;49.246;7.372;2023-03-14T06:11:44;4.97;;;2.50;;
47429;SDS011;33181;49.246;7.372;2023-03-14T06:14:11;6.90;;;2.30;;
47429;SDS011;33181;49.246;7.372;2023-03-14T06:16:37;7.17;;;2.30;;
47429;SDS011;33181;49.246;7.372;2023-03-14T06:19:03;5.67;;;2.50;;
47429;SDS011;33181;49.246;7.372;2023-03-14T06:21:28;4.10;;;1.80;;
47429;SDS011;33181;49.246;7.372;2023-03-14T06:23:56;5.20;;;2.03;;
47429;SDS011;33181;49.246;7.372;2023-03-14T06:26:22;5.20;;;2.13;;
47429;SDS011;33181;49.246;7.372;2023-03-14T06:28:48;6.60;;;2.33;;
47429;SDS011;33181;49.246;7.372;2023-03-14T06:31:15;5.10;;;2.60;;
47429;SDS011;33181;49.246;7.372;2023-03-14T06:33:41;5.20;;;2.00;;
47429;SDS011;33181;49.246;7.372;2023-03-14T06:36:07;2.93;;;1.93;;
47429;SDS011;33181;49.246;7.372;2023-03-14T06:38:33;5.73;;;2.17;;
47429;SDS011;33181;49.246;7.372;2023-03-14T06:41:06;6.77;;;2.83;;
47429;SDS011;33181;49.246;7.372;2023-03-14T06:43:32;5.97;;;2.13;;
47429;SDS011;33181;49.246;7.372;2023-03-14T06:45:58;4.00;;;2.10;;
47429;SDS011;33181;49.246;7.372;2023-03-14T06:48:25;4.07;;;2.20;;
47429;SDS011;33181;49.246;7.372;2023-03-14T06:50:51;5.23;;;2.00;;
47429;SDS011;33181;49.246;7.372;2023-03-14T06:53:16;3.17;;;1.70;;
47429;SDS011;33181;49.246;7.372;2023-03-14T06:55:44;3.13;;;1.80;;
47429;SDS011;33181;49.246;7.372;2023-03-14T06:58:10;3.60;;;1.90;;
47429;SDS011;33181;49.246;7.372;2023-03-14T07:00:36;3.73;;;1.87;;
47429;SDS011;33181;49.246;7.372;2023-03-14T07:03:02;2.77;;;1.90;;
47429;SDS011;33181;49.246;7.372;2023-03-14T07:05:28;5.07;;;1.80;;
47429;SDS011;33181;49.246;7.372;2023-03-14T07:07:54;3.00;;;2.00;;
47429;SDS011;33181;49.246;7.372;2023-03-14T07:10:21;3.33;;;1.77;;
47429;SDS011;33181;49.246;7.372;2023-03-14T07:12:47;3.20;;;2.00;;
47429;SDS011;33181;49.246;7.372;2023-03-14T07:15:14;4.17;;;2.10;;
47429;SDS011;33181;49.246;7.372;2023-03-14T07:17:40;4.40;;;2.40;;
47429;SDS011;33181;49.246;7.372;2023-03-14T07:20:06;2.30;;;1.80;;
47429;SDS011;33181;49.246;7.372;2023-03-14T07:22:34;4.07;;;1.80;;
47429;SDS011;33181;49.246;7.372;2023-03-14T07:25:01;2.83;;;1.80;;
47429;SDS011;33181;49.246;7.372;2023-03-14T07:27:26;4.40;;;1.80;;
47429;SDS011;33181;49.246;7.372;2023-03-14T07:29:52;5.20;;;1.90;;
47429;SDS011;33181;49.246;7.372;2023-03-14T07:32:18;4.13;;;1.90;;
47429;SDS011;33181;49.246;7.372;2023-03-14T07:34:43;3.30;;;2.00;;
47429;SDS011;33181;49.246;7.372;2023-03-14T07:37:09;4.30;;;1.67;;
47429;SDS011;33181;49.246;7.372;2023-03-14T07:39:37;2.20;;;1.73;;
47429;SDS011;33181;49.246;7.372;2023-03-14T07:42:02;2.40;;;1.70;;
47429;SDS011;33181;49.246;7.372;2023-03-14T07:44:28;5.40;;;1.90;;
47429;SDS011;33181;49.246;7.372;2023-03-14T07:46:54;5.23;;;1.93;;
47429;SDS011;33181;49.246;7.372;2023-03-14T07:49:20;2.57;;;1.70;;
47429;SDS011;33181;49.246;7.372;2023-03-14T07:51:48;2.47;;;1.70;;
47429;SDS011;33181;49.246;7.372;2023-03-14T07:54:15;5.03;;;1.90;;
47429;SDS011;33181;49.246;7.372;2023-03-14T07:56:41;3.40;;;1.70;;
47429;SDS011;33181;49.246;7.372;2023-03-14T07:59:07;4.43;;;1.83;;
47429;SDS011;33181;49.246;7.372;2023-03-14T08:01:33;3.57;;;1.90;;
47429;SDS011;33181;49.246;7.372;2023-03-14T08:03:59;3.53;;;1.70;;
47429;SDS011;33181;49.246;7.372;2023-03-14T08:06:25;3.53;;;1.90;;
47429;SDS011;33181;49.246;7.372;2023-03-14T08:08:51;4.97;;;1.80;;
47429;SDS011;33181;49.246;7.372;2023-03-14T08:11:16;3.97;;;2.20;;
47429;SDS011;33181;49.246;7.372;2023-03-14T08:13:42;4.30;;;2.00;;
47429;SDS011;33181;49.246;7.372;2023-03-14T08:16:14;3.27;;;1.80;;
47429;SDS011;33181;49.246;7.372;2023-03-14T08:18:44;3.50;;;1.70;;
47429;SDS011;33181;49.246;7.372;2023-03-14T08:21:10;3.60;;;1.80;;
47429;SDS011;33181;49.246;7.372;2023-03-14T08:23:37;2.87;;;1.80;;
47429;SDS011;33181;49.246;7.372;2023-03-14T08:26:03;2.40;;;1.80;;
47429;SDS011;33181;49.246;7.372;2023-03-14T08:28:29;4.70;;;2.30;;
47429;SDS011;33181;49.246;7.372;2023-03-14T08:30:57;2.00;;;1.60;;
47429;SDS011;33181;49.246;7.372;2023-03-14T08:33:23;3.57;;;1.70;;
47429;SDS011;33181;49.246;7.372;2023-03-14T08:35:51;3.63;;;1.90;;
47429;SDS011;33181;49.246;7.372;2023-03-14T08:38:19;2.80;;;1.80;;
47429;SDS011;33181;49.246;7.372;2023-03-14T08:40:44;3.63;;;1.77;;
47429;SDS011;33181;49.246;7.372;2023-03-14T08:43:14;2.20;;;1.73;;
47429;SDS011;33181;49.246;7.372;2023-03-14T08:45:39;2.97;;;1.60;;
47429;SDS011;33181;49.246;7.372;2023-03-14T08:48:07;2.30;;;1.73;;
47429;SDS011;33181;49.246;7.372;2023-03-14T08:50:33;5.33;;;1.80;;
47429;SDS011;33181;49.246;7.372;2023-03-14T08:52:58;2.80;;;1.80;;
47429;SDS011;33181;49.246;7.372;2023-03-14T08:55:26;2.37;;;1.70;;
47429;SDS011;33181;49.246;7.372;2023-03-14T08:57:54;2.90;;;1.90;;
47429;SDS011;33181;49.246;7.372;2023-03-14T09:00:21;2.03;;;1.70;;
47429;SDS011;33181;49.246;7.372;2023-03-14T09:02:47;4.20;;;1.93;;
47429;SDS011;33181;49.246;7.372;2023-03-14T09:05:13;2.43;;;1.67;;
47429;SDS011;33181;49.246;7.372;2023-03-14T09:07:39;3.50;;;2.00;;
47429;SDS011;33181;49.246;7.372;2023-03-14T09:10:06;2.80;;;1.70;;
47429;SDS011;33181;49.246;7.372;2023-03-14T09:12:33;3.63;;;1.53;;
47429;SDS011;33181;49.246;7.372;2023-03-14T09:14:59;2.80;;;1.60;;
47429;SDS011;33181;49.246;7.372;2023-03-14T09:17:24;3.70;;;1.70;;
47429;SDS011;33181;49.246;7.372;2023-03-14T09:19:50;2.20;;;1.60;;
47429;SDS011;33181;49.246;7.372;2023-03-14T09:22:16;2.00;;;1.50;;
47429;SDS011;33181;49.246;7.372;2023-03-14T09:24:42;2.20;;;1.50;;
47429;SDS011;33181;49.246;7.372;2023-03-14T09:27:08;2.70;;;1.60;;
47429;SDS011;33181;49.246;7.372;2023-03-14T09:29:34;2.00;;;1.60;;
47429;SDS011;33181;49.246;7.372;2023-03-14T09:31:59;2.77;;;1.80;;
47429;SDS011;33181;49.246;7.372;2023-03-14T09:34:25;3.50;;;1.90;;
47429;SDS011;33181;49.246;7.372;2023-03-14T09:36:52;4.60;;;2.40;;
47429;SDS011;33181;49.246;7.372;2023-03-14T09:39:18;3.50;;;2.87;;
47429;SDS011;33181;49.246;7.372;2023-03-14T09:41:44;4.37;;;2.70;;
47429;SDS011;33181;49.246;7.372;2023-03-14T09:44:15;2.90;;;2.50;;
47429;SDS011;33181;49.246;7.372;2023-03-14T09:46:50;5.00;;;2.50;;
47429;SDS011;33181;49.246;7.372;2023-03-14T09:49:29;4.93;;;2.63;;
47429;SDS011;33181;49.246;7.372;2023-03-14T09:52:02;3.33;;;2.70;;
47429;SDS011;33181;49.246;7.372;2023-03-14T09:54:50;3.20;;;2.37;;
47429;SDS011;33181;49.246;7.372;2023-03-14T09:57:35;6.40;;;2.70;;
47429;SDS011;33181;49.246;7.372;2023-03-14T10:00:06;3.00;;;2.63;;
47429;SDS011;33181;49.246;7.372;2023-03-14T10:02:42;4.53;;;2.50;;
47429;SDS011;33181;49.246;7.372;2023-03-14T10:05:22;2.60;;;2.40;;
47429;SDS011;33181;49.246;7.372;2023-03-14T10:07:50;2.57;;;2.20;;
47429;SDS011;33181;49.246;7.372;2023-03-14T10:10:20;3.30;;;2.10;;
47429;SDS011;33181;49.246;7.372;2023-03-14T10:12:59;3.40;;;2.10;;
47429;SDS011;33181;49.246;7.372;2023-03-14T10:15:38;2.30;;;2.10;;
47429;SDS011;33181;49.246;7.372;2023-03-14T10:18:09;3.13;;;2.40;;
47429;SDS011;33181;49.246;7.372;2023-03-14T10:20:44;2.40;;;2.00;;
47429;SDS011;33181;49.246;7.372;2023-03-14T10:25:39;3.03;;;2.33;;
47429;SDS011;33181;49.246;7.372;2023-03-14T10:28:30;3.33;;;2.63;;
47429;SDS011;33181;49.246;7.372;2023-03-14T10:30:58;3.27;;;2.67;;
47429;SDS011;33181;49.246;7.372;2023-03-14T10:33:26;3.63;;;2.97;;
47429;SDS011;33181;49.246;7.372;2023-03-14T10:35:56;5.60;;;3.43;;
47429;SDS011;33181;49.246;7.372;2023-03-14T10:38:37;3.77;;;2.63;;
47429;SDS011;33181;49.246;7.372;2023-03-14T10:41:14;3.00;;;2.40;;
47429;SDS011;33181;49.246;7.372;2023-03-14T10:43:56;2.60;;;2.40;;
47429;SDS011;33181;49.246;7.372;2023-03-14T10:46:24;4.00;;;2.57;;
47429;SDS011;33181;49.246;7.372;2023-03-14T10:48:54;3.73;;;3.13;;
47429;SDS011;33181;49.246;7.372;2023-03-14T10:51:28;3.10;;;2.80;;
47429;SDS011;33181;49.246;7.372;2023-03-14T10:54:15;2.97;;;2.53;;
47429;SDS011;33181;49.246;7.372;2023-03-14T10:56:50;3.17;;;2.50;;
47429;SDS011;33181;49.246;7.372;2023-03-14T10:59:27;3.07;;;2.50;;
47429;SDS011;33181;49.246;7.372;2023-03-14T11:02:04;3.33;;;2.57;;
47429;SDS011;33181;49.246;7.372;2023-03-14T11:07:50;4.10;;;2.83;;
47429;SDS011;33181;49.246;7.372;2023-03-14T11:10:37;3.77;;;3.03;;
47429;SDS011;33181;49.246;7.372;2023-03-14T11:24:57;5.30;;;3.23;;
47429;SDS011;33181;49.246;7.372;2023-03-14T11:27:41;4.07;;;2.70;;
47429;SDS011;33181;49.246;7.372;2023-03-14T11:30:17;3.50;;;2.77;;
47429;SDS011;33181;49.246;7.372;2023-03-14T11:32:45;5.47;;;3.10;;
47429;SDS011;33181;49.246;7.372;2023-03-14T11:35:28;4.57;;;3.10;;
47429;SDS011;33181;49.246;7.372;2023-03-14T11:38:48;3.70;;;2.93;;
47429;SDS011;33181;49.246;7.372;2023-03-14T11:41:22;4.07;;;2.90;;
47429;SDS011;33181;49.246;7.372;2023-03-14T11:44:03;4.73;;;3.03;;
47429;SDS011;33181;49.246;7.372;2023-03-14T11:50:02;3.47;;;2.30;;
47429;SDS011;33181;49.246;7.372;2023-03-14T11:52:44;3.13;;;2.37;;
47429;SDS011;33181;49.246;7.372;2023-03-14T11:55:33;3.53;;;2.70;;
47429;SDS011;33181;49.246;7.372;2023-03-14T11:58:05;4.47;;;3.00;;
47429;SDS011;33181;49.246;7.372;2023-03-14T12:00:44;9.90;;;3.27;;
47429;SDS011;33181;49.246;7.372;2023-03-14T12:03:23;5.13;;;2.30;;
47429;SDS011;33181;49.246;7.372;2023-03-14T12:06:20;3.17;;;1.93;;
47429;SDS011;33181;49.246;7.372;2023-03-14T12:08:58;3.93;;;2.77;;
47429;SDS011;33181;49.246;7.372;2023-03-14T12:13:59;3.33;;;2.20;;
47429;SDS011;33181;49.246;7.372;2023-03-14T12:16:29;5.13;;;2.60;;
47429;SDS011;33181;49.246;7.372;2023-03-14T12:19:14;2.27;;;1.80;;
47429;SDS011;33181;49.246;7.372;2023-03-14T12:24:45;2.73;;;1.70;;
47429;SDS011;33181;49.246;7.372;2023-03-14T12:33:08;3.80;;;1.90;;
47429;SDS011;33181;49.246;7.372;2023-03-14T12:35:40;4.63;;;2.87;;
47429;SDS011;33181;49.246;7.372;2023-03-14T12:38:17;4.07;;;1.87;;
47429;SDS011;33181;49.246;7.372;2023-03-14T12:41:48;3.50;;;1.80;;
47429;SDS011;33181;49.246;7.372;2023-03-14T12:50:07;3.00;;;1.70;;
47429;SDS011;33181;49.246;7.372;2023-03-14T12:52:44;2.50;;;1.90;;
47429;SDS011;33181;49.246;7.372;2023-03-14T12:57:59;2.93;;;1.77;;
47429;SDS011;33181;49.246;7.372;2023-03-14T13:00:37;8.80;;;2.33;;
47429;SDS011;33181;49.246;7.372;2023-03-14T13:03:15;7.23;;;1.80;;
47429;SDS011;33181;49.246;7.372;2023-03-14T13:08:33;4.70;;;1.50;;
47429;SDS011;33181;49.246;7.372;2023-03-14T13:11:05;3.57;;;2.00;;
47429;SDS011;33181;49.246;7.372;2023-03-14T13:13:47;2.30;;;1.80;;
47429;SDS011;33181;49.246;7.372;2023-03-14T13:16:20;5.90;;;1.80;;
47429;SDS011;33181;49.246;7.372;2023-03-14T13:19:29;3.80;;;2.10;;
47429;SDS011;33181;49.246;7.372;2023-03-14T13:21:59;3.90;;;1.80;;
47429;SDS011;33181;49.246;7.372;2023-03-14T13:24:32;3.10;;;1.80;;
47429;SDS011;33181;49.246;7.372;2023-03-14T13:26:59;4.10;;;1.70;;
47429;SDS011;33181;49.246;7.372;2023-03-14T13:29:27;5.40;;;1.80;;
47429;SDS011;33181;49.246;7.372;2023-03-14T13:31:56;3.07;;;1.80;;
47429;SDS011;33181;49.246;7.372;2023-03-14T13:34:26;4.47;;;1.90;;
47429;SDS011;33181;49.246;7.372;2023-03-14T13:36:55;5.30;;;1.77;;
47429;SDS011;33181;49.246;7.372;2023-03-14T13:39:22;4.43;;;1.83;;
47429;SDS011;33181;49.246;7.372;2023-03-14T13:41:54;3.13;;;1.90;;
47429;SDS011;33181;49.246;7.372;2023-03-14T13:44:32;2.47;;;1.77;;
47429;SDS011;33181;49.246;7.372;2023-03-14T13:47:05;5.13;;;2.10;;
47429;SDS011;33181;49.246;7.372;2023-03-14T13:49:38;3.80;;;2.00;;
47429;SDS011;33181;49.246;7.372;2023-03-14T13:52:20;3.20;;;2.43;;
47429;SDS011;33181;49.246;7.372;2023-03-14T13:54:57;4.30;;;2.07;;
47429;SDS011;33181;49.246;7.372;2023-03-14T13:57:25;3.30;;;1.93;;
47429;SDS011;33181;49.246;7.372;2023-03-14T13:59:57;8.37;;;2.20;;
47429;SDS011;33181;49.246;7.372;2023-03-14T14:02:35;3.13;;;1.70;;
47429;SDS011;33181;49.246;7.372;2023-03-14T14:05:03;3.33;;;2.03;;
47429;SDS011;33181;49.246;7.372;2023-03-14T14:07:29;3.63;;;1.90;;
47429;SDS011;33181;49.246;7.372;2023-03-14T14:09:55;3.90;;;1.93;;
47429;SDS011;33181;49.246;7.372;2023-03-14T14:12:43;7.27;;;2.60;;
47429;SDS011;33181;49.246;7.372;2023-03-14T14:15:28;4.30;;;2.10;;
47429;SDS011;33181;49.246;7.372;2023-03-14T14:18:01;3.30;;;1.83;;
47429;SDS011;33181;49.246;7.372;2023-03-14T14:20:40;3.53;;;2.10;;
47429;SDS011;33181;49.246;7.372;2023-03-14T14:23:16;4.10;;;1.93;;
47429;SDS011;33181;49.246;7.372;2023-03-14T14:26:01;8.37;;;2.23;;
47429;SDS011;33181;49.246;7.372;2023-03-14T14:28:32;5.53;;;2.30;;
47429;SDS011;33181;49.246;7.372;2023-03-14T14:33:43;4.73;;;1.97;;
47429;SDS011;33181;49.246;7.372;2023-03-14T14:38:56;4.53;;;2.40;;
47429;SDS011;33181;49.246;7.372;2023-03-14T14:41:39;4.70;;;2.10;;
47429;SDS011;33181;49.246;7.372;2023-03-14T14:44:07;3.43;;;2.33;;
47429;SDS011;33181;49.246;7.372;2023-03-14T14:46:37;5.43;;;2.50;;
47429;SDS011;33181;49.246;7.372;2023-03-14T14:49:05;5.17;;;2.07;;
47429;SDS011;33181;49.246;7.372;2023-03-14T14:52:10;6.67;;;2.00;;
47429;SDS011;33181;49.246;7.372;2023-03-14T14:54:37;7.20;;;2.17;;
47429;SDS011;33181;49.246;7.372;2023-03-14T14:57:22;3.30;;;2.13;;
47429;SDS011;33181;49.246;7.372;2023-03-14T14:59:56;4.63;;;2.20;;
47429;SDS011;33181;49.246;7.372;2023-03-14T15:02:38;5.10;;;2.40;;
47429;SDS011;33181;49.246;7.372;2023-03-14T15:05:20;3.80;;;1.90;;
47429;SDS011;33181;49.246;7.372;2023-03-14T15:07:52;5.20;;;2.20;;
47429;SDS011;33181;49.246;7.372;2023-03-14T15:10:19;5.30;;;2.77;;
47429;SDS011;33181;49.246;7.372;2023-03-14T15:12:48;5.83;;;2.53;;
47429;SDS011;33181;49.246;7.372;2023-03-14T15:15:14;5.10;;;2.30;;
47429;SDS011;33181;49.246;7.372;2023-03-14T15:17:42;3.53;;;2.00;;
47429;SDS011;33181;49.246;7.372;2023-03-14T15:20:12;6.00;;;2.53;;
47429;SDS011;33181;49.246;7.372;2023-03-14T15:22:41;4.17;;;2.30;;
47429;SDS011;33181;49.246;7.372;2023-03-14T15:25:07;11.73;;;2.60;;
47429;SDS011;33181;49.246;7.372;2023-03-14T15:27:35;4.40;;;2.20;;
47429;SDS011;33181;49.246;7.372;2023-03-14T15:30:01;5.60;;;2.33;;
47429;SDS011;33181;49.246;7.372;2023-03-14T15:32:28;2.93;;;2.07;;
47429;SDS011;33181;49.246;7.372;2023-03-14T15:34:54;6.73;;;2.27;;
47429;SDS011;33181;49.246;7.372;2023-03-14T15:37:20;5.10;;;2.50;;
47429;SDS011;33181;49.246;7.372;2023-03-14T15:39:46;7.20;;;3.37;;
47429;SDS011;33181;49.246;7.372;2023-03-14T15:42:12;5.23;;;2.47;;
47429;SDS011;33181;49.246;7.372;2023-03-14T15:44:38;7.93;;;2.77;;
47429;SDS011;33181;49.246;7.372;2023-03-14T15:47:05;3.30;;;2.30;;
47429;SDS011;33181;49.246;7.372;2023-03-14T15:49:33;4.53;;;2.67;;
47429;SDS011;33181;49.246;7.372;2023-03-14T15:51:59;6.57;;;2.80;;
47429;SDS011;33181;49.246;7.372;2023-03-14T15:54:25;10.90;;;3.17;;
47429;SDS011;33181;49.246;7.372;2023-03-14T15:56:57;6.13;;;2.90;;
47429;SDS011;33181;49.246;7.372;2023-03-14T15:59:23;7.53;;;2.80;;
47429;SDS011;33181;49.246;7.372;2023-03-14T16:01:50;7.50;;;2.90;;
47429;SDS011;33181;49.246;7.372;2023-03-14T16:04:16;6.70;;;3.53;;
47429;SDS011;33181;49.246;7.372;2023-03-14T16:06:42;6.50;;;2.80;;